Time;durP1;ratioP1;P1;durP2;ratioP2;P2;SDS_P1;SDS_P2;PMS_P1;PMS_P2;Temp;Humidity;BMP_temperature;BMP_pressure;BME280_temperature;BME280_humidity;BME280_pressure;Samples;Min_cycle;Max_cycle;Signal;HPM_P1;HPM_P2
2021/09/19 00:00:28;;;;;;;3.83;2.92;;;;;;;34.55;21.50;94436.25;5057176;28;20051;-69
2021/09/19 00:02:56;;;;;;;4.05;2.45;;;;;;;34.46;21.35;94452.44;5056766;28;20048;-65
2021/09/19 00:05:23;;;;;;;2.58;2.17;;;;;;;34.54;21.15;94449.06;5056686;28;20056;-67
2021/09/19 00:07:50;;;;;;;4.22;2.00;;;;;;;34.45;20.89;94426.50;5056671;28;20052;-68
2021/09/19 00:10:17;;;;;;;2.63;1.90;;;;;;;34.43;21.47;94426.94;5057638;28;20056;-63
2021/09/19 00:12:45;;;;;;;2.17;1.90;;;;;;;34.27;21.12;94427.06;5057348;28;20363;-67
2021/09/19 00:15:16;;;;;;;2.05;1.45;;;;;;;34.46;21.16;94414.47;5057669;28;20387;-63
2021/09/19 00:17:43;;;;;;;1.77;1.30;;;;;;;34.40;20.99;94413.50;5056320;28;20523;-71
2021/09/19 00:20:11;;;;;;;2.38;1.67;;;;;;;34.30;21.11;94412.63;5056249;28;20045;-72
2021/09/19 00:22:38;;;;;;;1.60;1.38;;;;;;;34.31;21.26;94414.13;5057080;28;20056;-67
2021/09/19 00:25:08;;;;;;;1.70;1.38;;;;;;;34.30;21.30;94397.09;5056667;28;20041;-69
2021/09/19 00:27:35;;;;;;;3.63;1.45;;;;;;;34.21;21.38;94391.59;5056090;28;20497;-63
2021/09/19 00:30:06;;;;;;;1.40;1.20;;;;;;;34.22;21.56;94379.53;5054647;28;20060;-69
2021/09/19 00:32:33;;;;;;;1.27;1.10;;;;;;;34.34;21.38;94378.00;5056263;28;20053;-67
2021/09/19 00:35:01;;;;;;;1.92;1.25;;;;;;;34.46;21.21;94392.75;5056881;28;20049;-68
2021/09/19 00:37:30;;;;;;;2.42;1.50;;;;;;;34.48;21.58;94376.78;5056323;28;20371;-67
2021/09/19 00:39:57;;;;;;;1.95;1.30;;;;;;;34.50;21.45;94372.44;5055834;28;20057;-65
2021/09/19 00:42:24;;;;;;;1.70;1.30;;;;;;;34.37;21.31;94373.69;5056568;28;20045;-68
2021/09/19 00:45:10;;;;;;;1.70;1.25;;;;;;;34.47;21.00;94378.75;5057053;28;20052;-71
2021/09/19 00:47:38;;;;;;;1.98;1.20;;;;;;;34.48;21.10;94371.34;5056402;28;20482;-71
2021/09/19 00:50:07;;;;;;;3.50;1.17;;;;;;;34.39;21.49;94379.44;5055944;28;20052;-68
2021/09/19 00:52:36;;;;;;;2.17;1.35;;;;;;;34.33;21.69;94374.50;5055143;28;20059;-71
2021/09/19 00:55:04;;;;;;;1.83;1.25;;;;;;;34.49;21.40;94362.03;5056330;28;20065;-68
2021/09/19 00:57:32;;;;;;;3.08;1.50;;;;;;;34.40;21.35;94367.38;5055954;28;20045;-68
2021/09/19 01:00:00;;;;;;;1.75;1.08;;;;;;;34.40;21.80;94361.94;5054931;28;20053;-71
2021/09/19 01:02:27;;;;;;;2.25;1.20;;;;;;;34.31;21.82;94371.47;5054914;28;20076;-71
2021/09/19 01:04:54;;;;;;;1.38;1.08;;;;;;;34.04;22.21;94371.22;5055617;28;20060;-68
2021/09/19 01:07:22;;;;;;;1.92;1.40;;;;;;;34.15;21.98;94368.94;5056386;28;20452;-68
2021/09/19 01:09:49;;;;;;;1.85;1.02;;;;;;;34.39;21.96;94363.91;5055624;28;20048;-66
2021/09/19 01:12:17;;;;;;;3.17;1.40;;;;;;;34.32;21.76;94364.84;5055905;28;20333;-68
2021/09/19 01:14:45;;;;;;;2.67;1.40;;;;;;;34.47;21.46;94362.47;5055922;28;20056;-67
2021/09/19 01:17:14;;;;;;;1.83;1.30;;;;;;;34.32;21.67;94367.56;5054511;28;20045;-63
2021/09/19 01:19:41;;;;;;;3.15;1.33;;;;;;;34.60;21.36;94354.25;5055282;28;20056;-67
2021/09/19 01:22:08;;;;;;;4.15;1.55;;;;;;;34.58;21.31;94357.41;5054468;28;20045;-68
2021/09/19 01:24:36;;;;;;;2.47;1.42;;;;;;;34.43;21.70;94355.66;5055194;28;20052;-66
2021/09/19 01:27:03;;;;;;;2.13;1.52;;;;;;;34.27;21.61;94368.13;5055402;28;20041;-58
2021/09/19 01:29:31;;;;;;;3.00;1.30;;;;;;;34.30;21.70;94363.78;5055408;28;20367;-71
2021/09/19 01:31:58;;;;;;;1.90;1.40;;;;;;;34.26;21.84;94361.19;5055780;28;20052;-70
2021/09/19 01:34:26;;;;;;;2.95;1.40;;;;;;;34.16;21.96;94359.59;5054749;28;20383;-70
2021/09/19 01:36:53;;;;;;;2.95;1.33;;;;;;;34.36;21.73;94361.31;5055313;28;20061;-69
2021/09/19 01:39:21;;;;;;;3.80;1.58;;;;;;;34.18;21.88;94368.06;5054908;28;20048;-68
2021/09/19 01:41:51;;;;;;;2.33;1.30;;;;;;;34.21;21.88;94371.84;5055274;28;20049;-69
2021/09/19 01:44:18;;;;;;;2.15;1.30;;;;;;;34.21;21.78;94372.59;5053461;28;20363;-67
2021/09/19 01:46:45;;;;;;;2.13;1.30;;;;;;;34.12;21.56;94363.63;5054892;28;20056;-65
2021/09/19 01:49:12;;;;;;;2.28;1.60;;;;;;;34.15;21.56;94358.09;5055152;28;20051;-66
2021/09/19 01:51:39;;;;;;;2.75;1.40;;;;;;;34.20;21.52;94365.66;5054795;28;20068;-68
2021/09/19 01:54:07;;;;;;;4.13;2.08;;;;;;;34.17;21.40;94371.97;5054565;28;20044;-71
2021/09/19 01:56:34;;;;;;;3.30;2.25;;;;;;;34.38;21.29;94359.69;5054922;28;20063;-67
2021/09/19 01:59:01;;;;;;;1.92;1.65;;;;;;;34.32;21.33;94367.56;5055187;28;20057;-67
2021/09/19 02:01:30;;;;;;;2.10;1.90;;;;;;;34.27;21.36;94360.00;5055061;28;20044;-69
2021/09/19 02:03:57;;;;;;;1.73;1.60;;;;;;;34.31;21.36;94363.34;5054502;28;20052;-69
2021/09/19 02:06:24;;;;;;;3.08;1.90;;;;;;;34.20;21.53;94360.25;5054465;28;20041;-65
2021/09/19 02:08:52;;;;;;;2.08;1.60;;;;;;;34.19;21.89;94366.88;5055006;28;20044;-71
2021/09/19 02:11:20;;;;;;;1.60;1.50;;;;;;;34.15;21.71;94358.09;5055006;28;20477;-68
2021/09/19 02:13:48;;;;;;;3.97;1.40;;;;;;;34.18;21.73;94353.75;5053408;28;20055;-66
2021/09/19 02:16:20;;;;;;;2.05;1.73;;;;;;;34.19;21.76;94353.31;5055127;28;20048;-71
2021/09/19 02:18:49;;;;;;;2.33;1.50;;;;;;;34.09;21.92;94348.97;5054264;28;20368;-71
2021/09/19 02:21:16;;;;;;;2.25;1.35;;;;;;;34.26;21.59;94339.50;5054117;28;20052;-71
2021/09/19 02:23:44;;;;;;;2.33;1.60;;;;;;;34.05;22.11;94353.75;5054515;28;20053;-69
2021/09/19 02:26:11;;;;;;;3.10;1.48;;;;;;;34.03;21.75;94353.44;5054402;28;20371;-67
2021/09/19 02:28:38;;;;;;;4.00;1.70;;;;;;;34.18;21.71;94346.38;5054491;28;20045;-68
2021/09/19 02:31:05;;;;;;;3.50;1.70;;;;;;;34.14;21.96;94345.72;5054824;28;20049;-66
2021/09/19 02:33:33;;;;;;;3.42;1.60;;;;;;;34.13;22.04;94340.75;5053985;28;20052;-69
2021/09/19 02:36:01;;;;;;;1.85;1.55;;;;;;;34.11;21.96;94341.19;5055362;28;20049;-68
2021/09/19 02:38:28;;;;;;;2.33;1.70;;;;;;;34.19;21.92;94339.75;5054561;28;20041;-69
2021/09/19 02:40:55;;;;;;;3.47;1.65;;;;;;;34.20;21.90;94349.38;5054154;28;20052;-69
2021/09/19 02:43:23;;;;;;;2.83;1.63;;;;;;;34.13;22.04;94348.88;5053335;28;20056;-71
2021/09/19 02:45:51;;;;;;;1.98;1.55;;;;;;;34.32;21.82;94334.25;5054849;28;20044;-68
2021/09/19 02:48:18;;;;;;;2.47;1.98;;;;;;;34.29;21.83;94335.13;5054531;28;20055;-67
2021/09/19 02:50:46;;;;;;;2.22;2.03;;;;;;;34.39;21.55;94341.44;5054119;28;20324;-63
2021/09/19 02:53:13;;;;;;;1.70;1.60;;;;;;;34.27;21.93;94338.28;5053708;28;20045;-71
2021/09/19 02:55:40;;;;;;;2.42;1.80;;;;;;;34.31;21.69;94338.94;5055685;28;20045;-64
2021/09/19 02:58:07;;;;;;;4.05;2.00;;;;;;;34.14;21.96;94329.44;5058897;28;20052;-63
2021/09/19 03:00:34;;;;;;;3.50;1.85;;;;;;;34.23;21.95;94348.50;5058851;28;20045;-70
2021/09/19 03:03:01;;;;;;;2.05;1.85;;;;;;;34.11;21.68;94354.75;5058478;28;20048;-71
2021/09/19 03:05:28;;;;;;;2.35;1.88;;;;;;;34.24;21.75;94338.41;5058019;28;20040;-70
2021/09/19 03:07:56;;;;;;;4.32;1.80;;;;;;;34.21;21.84;94340.06;5058248;28;20056;-68
2021/09/19 03:10:23;;;;;;;1.70;1.52;;;;;;;34.18;21.83;94335.50;5057651;28;20051;-68
2021/09/19 03:12:51;;;;;;;3.22;2.03;;;;;;;34.17;21.95;94342.13;5058047;28;20048;-68
2021/09/19 03:15:18;;;;;;;2.33;1.85;;;;;;;34.38;21.50;94334.50;5057540;28;20057;-60
2021/09/19 03:17:45;;;;;;;5.03;2.00;;;;;;;34.33;21.67;94341.94;5057514;28;20049;-67
2021/09/19 03:20:14;;;;;;;6.18;2.30;;;;;;;34.45;21.70;94339.69;5055644;28;20075;-62
2021/09/19 03:22:43;;;;;;;2.53;1.85;;;;;;;34.40;21.67;94340.25;5056987;28;20052;-48
2021/09/19 03:25:11;;;;;;;2.92;1.80;;;;;;;34.46;21.75;94339.25;5048685;28;20355;-54
2021/09/19 03:27:38;;;;;;;2.78;2.03;;;;;;;34.36;21.79;94334.94;5038678;28;20080;-58
2021/09/19 03:30:08;;;;;;;2.15;1.60;;;;;;;34.44;21.67;94336.22;5045481;28;20052;-67
2021/09/19 03:32:35;;;;;;;2.80;1.98;;;;;;;34.31;21.88;94332.75;5057278;28;20079;-59
2021/09/19 03:35:03;;;;;;;3.95;2.03;;;;;;;34.28;21.94;94328.19;5056874;28;20367;-52
2021/09/19 03:37:30;;;;;;;3.63;1.80;;;;;;;34.12;22.26;94337.28;5057680;28;20052;-53
2021/09/19 03:39:57;;;;;;;2.08;1.70;;;;;;;34.37;21.86;94324.84;5057357;28;20064;-54
2021/09/19 03:42:24;;;;;;;3.15;1.92;;;;;;;34.31;21.95;94333.50;5057249;28;20049;-53
2021/09/19 03:44:51;;;;;;;2.60;2.00;;;;;;;34.20;21.91;94327.69;5057140;28;20052;-58
2021/09/19 03:47:19;;;;;;;2.08;1.88;;;;;;;34.23;21.87;94340.38;5057305;28;20435;-56
2021/09/19 03:49:46;;;;;;;2.05;1.85;;;;;;;34.26;21.71;94342.19;5056385;28;20052;-56
2021/09/19 03:52:13;;;;;;;2.30;2.10;;;;;;;34.03;22.09;94350.72;5056897;28;20048;-58
2021/09/19 03:54:40;;;;;;;2.30;1.70;;;;;;;34.23;21.87;94348.50;5057037;28;20048;-56
2021/09/19 03:57:07;;;;;;;2.55;2.10;;;;;;;34.20;22.11;94348.63;5056965;28;20452;-55
2021/09/19 03:59:35;;;;;;;2.38;1.95;;;;;;;34.07;22.23;94350.59;5057239;28;20065;-57
2021/09/19 04:02:02;;;;;;;3.33;1.90;;;;;;;34.22;21.84;94347.00;5056854;28;20048;-54
2021/09/19 04:04:30;;;;;;;2.33;1.98;;;;;;;34.06;21.94;94339.00;5056253;28;20057;-56
2021/09/19 04:06:57;;;;;;;3.90;2.05;;;;;;;34.32;21.64;94336.97;5055915;28;20143;-59
2021/09/19 04:09:24;;;;;;;3.30;2.20;;;;;;;34.29;21.89;94341.31;5056983;28;20049;-54
2021/09/19 04:11:53;;;;;;;2.30;2.10;;;;;;;34.13;21.73;94338.03;5056051;28;20048;-58
2021/09/19 04:14:20;;;;;;;2.33;2.13;;;;;;;34.13;21.81;94338.03;5055998;28;20482;-61
2021/09/19 04:16:47;;;;;;;3.25;2.30;;;;;;;34.25;21.70;94339.94;5062820;28;20059;-61
2021/09/19 04:19:15;;;;;;;2.35;1.92;;;;;;;34.17;21.75;94328.56;5065769;28;20060;-59
2021/09/19 04:21:42;;;;;;;3.20;2.00;;;;;;;34.24;21.83;94333.75;5056231;28;20056;-55
2021/09/19 04:24:09;;;;;;;4.10;2.40;;;;;;;34.20;21.88;94322.28;5056206;28;20044;-56
2021/09/19 04:26:36;;;;;;;2.25;1.95;;;;;;;34.24;21.92;94333.00;5056424;28;20041;-59
2021/09/19 04:29:03;;;;;;;4.32;2.20;;;;;;;34.23;21.92;94332.22;5056728;28;20060;-60
2021/09/19 04:31:30;;;;;;;2.13;1.92;;;;;;;34.36;21.67;94345.03;5056296;28;20045;-58
2021/09/19 04:33:58;;;;;;;2.75;2.17;;;;;;;34.10;22.08;94347.81;5055997;28;20061;-60
2021/09/19 04:36:25;;;;;;;2.47;2.28;;;;;;;34.24;21.90;94352.75;5056466;28;20053;-57
2021/09/19 04:38:52;;;;;;;5.10;2.00;;;;;;;34.24;21.85;94360.88;5057081;28;20045;-60
2021/09/19 04:41:19;;;;;;;2.30;1.92;;;;;;;34.21;21.90;94361.75;5056209;28;20052;-56
2021/09/19 04:43:46;;;;;;;3.97;2.50;;;;;;;34.30;21.98;94364.53;5056422;28;20047;-53
2021/09/19 04:46:13;;;;;;;2.55;2.28;;;;;;;34.28;21.87;94366.19;5056424;28;20044;-54
2021/09/19 04:48:40;;;;;;;2.88;2.03;;;;;;;34.28;21.83;94361.50;5056295;28;20041;-54
2021/09/19 04:51:07;;;;;;;2.88;2.42;;;;;;;34.35;21.61;94362.50;5055819;28;20051;-54
2021/09/19 04:53:35;;;;;;;2.50;2.10;;;;;;;34.40;21.75;94356.53;5055600;28;20063;-53
2021/09/19 04:56:02;;;;;;;3.00;2.05;;;;;;;34.51;21.45;94363.09;5056649;28;20040;-54
2021/09/19 04:58:30;;;;;;;2.30;2.10;;;;;;;34.65;21.48;94364.56;5056014;28;20051;-54
2021/09/19 05:00:57;;;;;;;2.80;2.28;;;;;;;34.47;21.72;94354.31;5055786;28;20045;-55
2021/09/19 05:03:24;;;;;;;2.47;2.28;;;;;;;34.31;21.86;94355.19;5054600;28;20057;-55
2021/09/19 05:05:51;;;;;;;3.92;2.30;;;;;;;34.16;22.21;94359.59;5055515;28;20037;-53
2021/09/19 05:08:18;;;;;;;2.97;2.10;;;;;;;34.28;21.84;94347.19;5056335;28;20367;-52
2021/09/19 05:10:45;;;;;;;2.70;2.47;;;;;;;34.57;21.64;94355.91;5055698;28;20075;-52
2021/09/19 05:13:12;;;;;;;6.18;2.20;;;;;;;34.40;21.67;94361.94;5056528;28;20048;-54
2021/09/19 05:15:41;;;;;;;3.42;2.00;;;;;;;34.43;21.55;94358.34;5055229;28;20490;-54
2021/09/19 05:18:08;;;;;;;2.53;2.17;;;;;;;34.60;21.44;94346.13;5055382;28;20055;-55
2021/09/19 05:20:35;;;;;;;2.20;1.90;;;;;;;34.64;21.41;94354.91;5055249;28;20048;-54
2021/09/19 05:23:02;;;;;;;2.20;2.00;;;;;;;34.52;21.58;94361.13;5055110;28;20048;-54
2021/09/19 05:25:29;;;;;;;2.85;1.80;;;;;;;34.45;21.83;94359.44;5055706;28;20045;-54
2021/09/19 05:27:56;;;;;;;5.35;2.15;;;;;;;34.43;21.70;94361.06;5056378;28;20048;-54
2021/09/19 05:30:23;;;;;;;2.17;1.83;;;;;;;34.35;21.94;94352.41;5055882;28;20049;-54
2021/09/19 05:32:50;;;;;;;4.07;2.08;;;;;;;34.54;21.95;94351.34;5054865;28;20045;-56
2021/09/19 05:35:18;;;;;;;2.90;2.00;;;;;;;34.56;21.85;94348.94;5054139;28;20040;-57
2021/09/19 05:37:45;;;;;;;2.40;2.20;;;;;;;34.61;21.74;94353.06;5055456;28;20045;-53
2021/09/19 05:40:14;;;;;;;2.45;2.10;;;;;;;34.70;21.42;94346.94;5054295;28;20509;-52
2021/09/19 05:42:41;;;;;;;2.10;1.90;;;;;;;34.89;21.21;94349.38;5053445;28;20048;-53
2021/09/19 05:45:09;;;;;;;3.05;1.85;;;;;;;35.03;21.14;94331.03;5035170;28;20349;-53
2021/09/19 05:47:37;;;;;;;2.00;1.80;;;;;;;34.85;21.63;94335.16;5035704;28;20052;-57
2021/09/19 05:50:05;;;;;;;2.05;1.85;;;;;;;34.92;21.17;94321.34;5035134;28;20064;-55
2021/09/19 05:52:32;;;;;;;2.45;1.98;;;;;;;35.33;21.05;94319.41;5054513;28;20045;-56
2021/09/19 05:54:59;;;;;;;2.40;1.60;;;;;;;35.30;20.93;94320.31;5054898;28;20045;-56
2021/09/19 05:57:26;;;;;;;2.83;1.90;;;;;;;35.37;20.80;94311.16;5055420;28;20079;-56
2021/09/19 05:59:54;;;;;;;3.15;2.13;;;;;;;35.41;20.61;94306.34;5055074;28;20052;-50
2021/09/19 06:02:21;;;;;;;2.20;1.90;;;;;;;35.69;20.50;94307.19;5046083;28;20049;-60
2021/09/19 06:04:48;;;;;;;2.47;1.75;;;;;;;35.58;20.34;94313.03;5054081;28;20049;-55
2021/09/19 06:07:15;;;;;;;2.55;1.85;;;;;;;35.84;20.04;94325.22;5054929;28;20071;-54
2021/09/19 06:09:42;;;;;;;3.28;1.50;;;;;;;35.80;20.24;94321.09;5054775;28;20056;-58
2021/09/19 06:12:09;;;;;;;2.08;1.70;;;;;;;35.73;20.65;94322.16;5054123;28;20056;-56
2021/09/19 06:14:36;;;;;;;2.10;1.30;;;;;;;35.99;20.34;94322.69;5054651;28;20044;-56
2021/09/19 06:17:03;;;;;;;1.67;1.55;;;;;;;36.01;19.88;94303.19;5054644;28;20049;-57
2021/09/19 06:19:30;;;;;;;2.78;1.83;;;;;;;36.29;19.81;94310.16;5054726;28;20041;-55
2021/09/19 06:21:59;;;;;;;1.70;1.55;;;;;;;36.42;19.58;94315.47;5053968;28;20079;-55
2021/09/19 06:24:28;;;;;;;3.40;1.90;;;;;;;36.28;19.86;94326.94;5054747;28;20053;-55
2021/09/19 06:27:00;;;;;;;2.22;2.00;;;;;;;36.27;19.75;94326.19;5054555;28;20044;-54
2021/09/19 06:29:27;;;;;;;3.97;1.75;;;;;;;36.77;19.79;94334.22;5042822;28;20041;-55
2021/09/19 06:31:55;;;;;;;2.20;1.60;;;;;;;36.97;19.07;94339.97;5044517;28;20360;-55
2021/09/19 06:34:22;;;;;;;2.00;1.77;;;;;;;37.14;18.74;94330.22;5050416;28;20056;-55
2021/09/19 06:36:49;;;;;;;2.35;1.77;;;;;;;36.89;19.20;94336.03;5054318;28;20072;-56
2021/09/19 06:39:17;;;;;;;2.38;1.50;;;;;;;37.04;19.63;94337.66;5054541;28;20435;-54
2021/09/19 06:41:44;;;;;;;6.47;1.90;;;;;;;36.79;19.47;94340.00;5053964;28;20056;-63
2021/09/19 06:44:11;;;;;;;3.45;1.80;;;;;;;36.46;18.92;94332.44;5054377;28;20474;-60
2021/09/19 06:46:38;;;;;;;6.95;1.98;;;;;;;36.53;19.47;94321.22;5054119;28;20116;-59
2021/09/19 06:49:05;;;;;;;3.67;1.60;;;;;;;37.01;19.24;94327.69;5041795;28;20049;-53
2021/09/19 06:51:32;;;;;;;5.30;1.65;;;;;;;36.18;20.00;94328.91;5044200;28;20048;-54
2021/09/19 06:53:59;;;;;;;9.90;1.60;;;;;;;36.26;19.92;94332.84;5054303;28;20052;-54
2021/09/19 06:56:27;;;;;;;3.95;1.75;;;;;;;35.91;20.02;94332.31;5054210;28;20041;-54
2021/09/19 06:58:54;;;;;;;4.53;1.90;;;;;;;35.80;20.27;94340.13;5054229;28;20053;-58
2021/09/19 07:01:22;;;;;;;4.32;1.75;;;;;;;36.00;19.86;94340.53;5050321;28;20052;-61
2021/09/19 07:03:49;;;;;;;3.85;2.10;;;;;;;36.06;20.20;94351.56;5053954;28;20067;-52
2021/09/19 07:06:17;;;;;;;3.60;2.28;;;;;;;36.54;19.79;94349.97;5054002;28;20037;-58
2021/09/19 07:08:45;;;;;;;4.57;2.40;;;;;;;37.25;19.02;94348.84;5054135;28;20056;-70
2021/09/19 07:11:13;;;;;;;3.00;2.22;;;;;;;37.49;19.13;94352.41;5053817;28;20053;-70
2021/09/19 07:13:40;;;;;;;3.28;2.45;;;;;;;37.24;18.70;94350.78;5037992;28;20048;-66
2021/09/19 07:16:07;;;;;;;3.33;2.47;;;;;;;37.69;18.44;94346.38;5033863;28;20045;-54
2021/09/19 07:18:34;;;;;;;2.45;2.20;;;;;;;37.39;18.80;94344.69;5034128;28;20052;-54
2021/09/19 07:21:01;;;;;;;2.17;1.98;;;;;;;37.19;19.47;94337.75;5039180;28;20045;-57
2021/09/19 07:23:29;;;;;;;3.20;2.83;;;;;;;36.96;19.11;94346.63;5053562;28;20053;-55
2021/09/19 07:25:56;;;;;;;2.60;2.40;;;;;;;36.82;19.50;94347.25;5054309;28;20048;-55
2021/09/19 07:28:23;;;;;;;5.97;2.60;;;;;;;37.18;19.09;94358.06;5054272;28;20079;-55
2021/09/19 07:30:50;;;;;;;9.90;2.60;;;;;;;38.76;17.52;94354.81;5053312;28;20444;-62
2021/09/19 07:33:17;;;;;;;3.58;2.58;;;;;;;38.85;17.74;94344.59;5050651;28;20053;-55
2021/09/19 07:35:44;;;;;;;5.32;2.60;;;;;;;39.04;17.39;94356.09;5053292;28;20049;-56
2021/09/19 07:38:12;;;;;;;2.95;2.65;;;;;;;39.19;17.26;94355.34;5053397;28;20483;-64
2021/09/19 07:40:39;;;;;;;2.60;2.22;;;;;;;38.34;18.50;94369.41;5053975;28;20049;-46
2021/09/19 07:43:07;;;;;;;14.65;7.15;;;;;;;39.43;17.39;94370.44;5056428;28;20052;-57
2021/09/19 07:45:35;;;;;;;54.15;41.13;;;;;;;38.98;17.46;94368.88;5057290;28;20060;-55
2021/09/19 07:48:09;;;;;;;9.35;7.57;;;;;;;39.99;16.25;94365.06;5041862;28;20037;-56
2021/09/19 07:50:37;;;;;;;4.40;3.10;;;;;;;40.44;15.83;94373.88;5037512;28;20049;-52
2021/09/19 07:53:05;;;;;;;23.83;20.77;;;;;;;38.35;18.14;94376.38;5044975;28;20048;-53
2021/09/19 07:55:34;;;;;;;271.40;193.90;;;;;;;38.92;18.13;94378.97;5056564;28;20040;-53
2021/09/19 07:58:01;;;;;;;197.73;135.02;;;;;;;40.82;16.28;94368.09;5012921;23;20058;-53
2021/09/19 08:00:28;;;;;;;24.80;15.85;;;;;;;41.25;15.96;94360.06;4977686;28;20047;-58
2021/09/19 08:02:56;;;;;;;5.70;3.80;;;;;;;40.75;15.66;94368.50;4978432;28;20058;-53
2021/09/19 08:05:23;;;;;;;35.60;32.22;;;;;;;40.33;16.30;94364.25;4978446;28;20051;-47
2021/09/19 08:07:53;;;;;;;8.30;7.50;;;;;;;39.55;16.44;94371.38;4978780;28;20468;-56
2021/09/19 08:10:20;;;;;;;4.82;4.10;;;;;;;39.48;16.55;94374.47;4997685;28;20364;-50
2021/09/19 08:12:48;;;;;;;6.13;5.57;;;;;;;39.14;16.85;94363.00;4981871;28;20042;-46
2021/09/19 08:15:17;;;;;;;4.20;3.80;;;;;;;39.09;17.28;94368.38;4978211;28;20058;-60
2021/09/19 08:17:45;;;;;;;3.88;3.45;;;;;;;38.95;17.67;94374.53;4977865;28;20054;-52
2021/09/19 08:20:14;;;;;;;4.25;2.85;;;;;;;39.42;17.50;94376.38;4997705;28;20053;-46
2021/09/19 08:22:41;;;;;;;4.57;2.95;;;;;;;39.95;17.45;94380.94;4997418;28;20050;-50
2021/09/19 08:25:11;;;;;;;9.40;3.47;;;;;;;39.98;17.69;94390.94;4997493;28;20046;-52
2021/09/19 08:27:40;;;;;;;5.50;3.63;;;;;;;39.83;17.53;94384.72;4993687;28;20050;-52
2021/09/19 08:30:10;;;;;;;9.02;3.60;;;;;;;39.71;17.55;94386.53;4996965;28;20058;-51
2021/09/19 08:32:37;;;;;;;5.57;3.78;;;;;;;37.22;19.56;94385.91;4991744;28;20057;-50
2021/09/19 08:35:06;;;;;;;7.40;3.90;;;;;;;38.64;18.55;94377.72;4977898;28;20047;-60
2021/09/19 08:37:33;;;;;;;6.28;3.25;;;;;;;41.58;16.05;94381.50;4987865;28;20046;-72
2021/09/19 08:40:06;;;;;;;11.27;3.63;;;;;;;41.62;16.31;94386.78;4994857;28;20054;-69
2021/09/19 08:42:58;;;;;;;10.80;3.50;;;;;;;41.40;16.21;94381.91;4978169;28;20062;-56
2021/09/19 08:45:25;;;;;;;5.90;3.55;;;;;;;41.11;16.54;94382.84;4978009;28;20069;-52
2021/09/19 08:47:52;;;;;;;11.63;3.38;;;;;;;40.97;16.11;94384.47;4984011;28;20046;-57
2021/09/19 08:50:21;;;;;;;3.92;3.45;;;;;;;40.56;16.16;94383.72;4996844;28;20434;-55
2021/09/19 08:52:49;;;;;;;4.45;3.35;;;;;;;40.88;15.87;94384.63;4997017;28;20384;-55
2021/09/19 08:55:16;;;;;;;5.70;3.22;;;;;;;39.68;16.91;94388.25;4996938;28;20046;-54
2021/09/19 08:57:46;;;;;;;7.35;3.50;;;;;;;39.90;16.73;94387.81;4987016;28;20049;-63
2021/09/19 09:00:16;;;;;;;7.67;3.73;;;;;;;39.24;17.40;94384.75;5011693;28;20053;-58
2021/09/19 09:02:51;;;;;;;4.80;3.60;;;;;;;39.28;17.57;94388.06;4997212;28;20053;-61
2021/09/19 09:05:24;;;;;;;20.60;11.68;;;;;;;37.08;19.87;94386.53;4985258;28;20046;-59
2021/09/19 09:07:56;;;;;;;178.93;120.25;;;;;;;39.66;17.53;94400.88;4980877;28;20043;-50
2021/09/19 09:10:41;;;;;;;36.67;25.15;;;;;;;39.98;17.06;94390.94;4995926;28;20054;-65
2021/09/19 09:13:14;;;;;;;8.25;6.82;;;;;;;39.14;17.71;94381.38;4996625;28;20053;-50
2021/09/19 09:15:43;;;;;;;5.00;4.18;;;;;;;38.89;17.92;94382.66;4996497;28;20046;-43
2021/09/19 09:18:31;;;;;;;4.43;4.07;;;;;;;38.69;18.18;94379.78;4995693;28;20057;-43
2021/09/19 09:21:09;;;;;;;4.80;4.40;;;;;;;37.94;18.97;94375.97;4993662;28;20101;-73
2021/09/19 09:23:48;;;;;;;5.22;3.88;;;;;;;37.37;19.13;94377.13;4976968;28;20054;-50
2021/09/19 09:26:37;;;;;;;17.13;4.22;;;;;;;37.41;19.16;94369.53;4976702;28;20054;-69
2021/09/19 09:29:07;;;;;;;8.90;3.88;;;;;;;37.15;19.70;94358.97;4991310;28;20050;-55
2021/09/19 09:31:39;;;;;;;24.63;17.80;;;;;;;37.07;19.80;94368.69;4996304;28;20043;-55
2021/09/19 09:34:09;;;;;;;10.82;7.72;;;;;;;37.05;20.10;94362.94;4990551;28;20050;-52
2021/09/19 09:37:08;;;;;;;16.75;9.00;;;;;;;36.71;20.73;94362.06;4976506;28;20055;-50
2021/09/19 09:39:43;;;;;;;9.75;7.47;;;;;;;36.67;20.70;94355.22;4993050;28;20054;-54
2021/09/19 09:42:15;;;;;;;6.88;5.78;;;;;;;36.94;20.81;94354.47;4993960;28;20046;-53
2021/09/19 09:44:46;;;;;;;6.22;5.18;;;;;;;36.45;20.87;94363.56;4995782;28;20397;-52
2021/09/19 09:47:20;;;;;;;7.32;5.88;;;;;;;36.55;21.00;94348.00;4982556;28;20054;-64
2021/09/19 09:49:55;;;;;;;7.25;4.90;;;;;;;36.56;21.34;94347.53;4995912;28;20054;-51
2021/09/19 09:52:30;;;;;;;6.13;4.72;;;;;;;36.50;20.72;94341.19;4994675;28;20062;-72
2021/09/19 09:55:02;;;;;;;5.55;4.75;;;;;;;36.47;21.33;94333.19;4995947;28;20051;-71
2021/09/19 09:57:32;;;;;;;4.55;4.15;;;;;;;36.89;20.76;94327.84;4994658;28;20050;-72
2021/09/19 10:00:12;;;;;;;5.40;4.90;;;;;;;36.55;21.02;94318.81;4995902;28;20053;-74
2021/09/19 10:02:42;;;;;;;5.40;4.90;;;;;;;36.78;21.11;94319.38;4994909;28;20046;-53
2021/09/19 10:05:13;;;;;;;7.90;5.32;;;;;;;37.85;20.75;94326.19;4991202;28;20054;-48
2021/09/19 10:07:42;;;;;;;5.40;4.60;;;;;;;38.48;20.23;94326.97;4977270;28;20445;-48
2021/09/19 10:10:11;;;;;;;4.43;4.03;;;;;;;38.37;19.85;94322.06;4995615;28;20053;-45
2021/09/19 10:12:39;;;;;;;6.57;4.22;;;;;;;38.19;20.26;94316.75;5001271;28;20068;-46
2021/09/19 10:15:11;;;;;;;6.15;4.18;;;;;;;38.67;19.29;94311.22;5015179;28;20053;-65
2021/09/19 10:17:38;;;;;;;4.38;3.95;;;;;;;38.75;19.21;94324.03;5012865;28;20825;-70
2021/09/19 10:20:23;;;;;;;4.22;3.80;;;;;;;38.25;19.74;94315.63;4995547;28;20058;-58
2021/09/19 10:22:59;;;;;;;5.50;3.95;;;;;;;38.83;19.32;94316.25;5009957;28;20053;-57
2021/09/19 10:25:26;;;;;;;5.00;4.50;;;;;;;38.59;19.46;94315.53;4979647;28;20043;-72
2021/09/19 10:28:16;;;;;;;5.03;3.83;;;;;;;38.73;19.45;94314.81;4986647;28;20049;-67
2021/09/19 10:31:08;;;;;;;8.20;4.10;;;;;;;38.91;19.39;94309.16;4995405;28;20053;-70
2021/09/19 10:33:43;;;;;;;4.68;4.05;;;;;;;39.00;19.17;94309.06;4988010;28;20047;-67
2021/09/19 10:36:49;;;;;;;6.78;4.57;;;;;;;39.11;18.86;94301.09;4975851;28;20453;-66
2021/09/19 10:39:31;;;;;;;6.13;4.35;;;;;;;38.83;18.92;94297.13;4989757;28;20067;-67
2021/09/19 10:42:16;;;;;;;4.43;3.95;;;;;;;38.91;18.96;94309.16;4995332;28;20058;-49
2021/09/19 10:44:46;;;;;;;3.85;3.55;;;;;;;39.21;18.85;94306.44;5010084;28;20046;-67
2021/09/19 10:47:26;;;;;;;4.77;3.97;;;;;;;39.06;18.50;94299.03;4995099;28;20358;-72
2021/09/19 10:50:26;;;;;;;6.03;4.28;;;;;;;39.41;18.69;94295.56;4993982;28;20046;-65
2021/09/19 10:53:03;;;;;;;4.85;4.43;;;;;;;39.51;18.47;94288.78;4994964;28;20438;-71
2021/09/19 10:55:51;;;;;;;4.97;4.32;;;;;;;39.41;18.73;94273.69;4995131;28;20050;-72
2021/09/19 10:58:44;;;;;;;4.72;4.30;;;;;;;39.39;18.59;94287.09;4990417;28;20065;-67
2021/09/19 11:01:23;;;;;;;5.80;4.50;;;;;;;38.95;19.02;94287.88;4993746;28;20053;-72
2021/09/19 11:03:59;;;;;;;4.45;3.85;;;;;;;39.10;18.84;94272.25;4995167;28;20042;-66
2021/09/19 11:06:47;;;;;;;5.28;4.78;;;;;;;39.48;18.37;94262.34;4994961;28;20058;-72
2021/09/19 11:09:26;;;;;;;5.90;5.35;;;;;;;39.18;18.70;94278.06;4994811;28;20357;-73
2021/09/19 11:12:26;;;;;;;9.90;8.90;;;;;;;38.68;18.89;94269.03;5010545;28;20046;-49
2021/09/19 11:15:10;;;;;;;38.25;34.75;;;;;;;38.27;19.51;94268.78;5008485;28;20058;-66
2021/09/19 11:18:14;;;;;;;18.08;16.35;;;;;;;38.38;19.73;94251.84;5014666;28;20057;-53
2021/09/19 11:21:27;;;;;;;10.75;9.65;;;;;;;38.59;19.16;94256.19;4976803;28;20055;-67
2021/09/19 11:24:01;;;;;;;7.28;6.63;;;;;;;38.63;19.63;94261.50;4977049;28;20059;-68
2021/09/19 11:26:32;;;;;;;6.80;6.20;;;;;;;38.38;19.68;94258.06;4976228;28;20051;-68
2021/09/19 11:29:30;;;;;;;6.47;5.65;;;;;;;38.48;19.95;94251.28;4976577;28;20085;-72
2021/09/19 11:31:58;;;;;;;5.47;4.97;;;;;;;38.20;19.70;94258.22;4960595;28;20059;-62
2021/09/19 11:34:27;;;;;;;6.18;5.15;;;;;;;38.02;20.62;94264.56;4966794;28;20054;-60
2021/09/19 11:36:57;;;;;;;7.00;4.85;;;;;;;38.36;20.20;94249.59;4957179;29;20047;-72
2021/09/19 11:39:31;;;;;;;5.50;4.63;;;;;;;38.61;19.83;94258.47;4970841;28;20055;-73
2021/09/19 11:42:03;;;;;;;5.43;4.93;;;;;;;38.71;19.49;94251.69;4973400;28;20393;-46
2021/09/19 11:44:31;;;;;;;5.90;5.20;;;;;;;38.31;19.81;94252.97;4975272;28;20480;-68